createdAt,value
2023-01-30T00:01:35.497Z,-0.99
2023-01-30T00:06:44.626Z,-0.88
2023-01-30T00:11:50.227Z,-1.08
2023-01-30T00:16:54.797Z,-1.53
2023-01-30T00:22:00.720Z,-1.00
2023-01-30T00:27:05.275Z,-1.31
2023-01-30T00:32:10.460Z,-1.53
2023-01-30T00:37:19.079Z,-0.97
2023-01-30T00:42:40.885Z,-0.83
2023-01-30T00:47:45.685Z,-1.32
2023-01-30T00:52:51.498Z,-1.03
2023-01-30T00:57:55.901Z,-0.75
2023-01-30T01:03:00.247Z,-1.09
2023-01-30T01:08:07.026Z,-0.41
2023-01-30T01:13:14.291Z,-0.79
2023-01-30T01:18:18.812Z,-0.93
2023-01-30T01:23:25.986Z,-0.82
2023-01-30T01:28:30.478Z,-1.04
2023-01-30T01:33:34.894Z,-0.05
2023-01-30T01:38:43.091Z,-0.75
2023-01-30T01:44:06.541Z,-0.68
2023-01-30T01:49:17.598Z,-0.24
2023-01-30T01:54:31.241Z,-0.47
2023-01-30T01:59:40.237Z,-0.91
2023-01-30T02:05:06.618Z,-0.08
2023-01-30T02:10:19.913Z,-0.45
2023-01-30T02:15:24.958Z,0.06
2023-01-30T02:20:41.742Z,0.23
2023-01-30T02:26:22.511Z,-0.17
2023-01-30T02:31:37.211Z,-0.14
2023-01-30T02:36:53.715Z,-0.13
2023-01-30T02:42:04.830Z,-0.50
2023-01-30T02:47:16.399Z,-0.07
2023-01-30T02:52:21.967Z,-0.81
2023-01-30T02:57:27.912Z,-0.54
2023-01-30T03:03:11.128Z,-0.47
2023-01-30T03:08:26.477Z,-1.18
2023-01-30T03:13:46.410Z,-0.19
2023-01-30T03:18:53.364Z,0.02
2023-01-30T03:23:57.926Z,-0.03
2023-01-30T03:29:03.404Z,-0.16
2023-01-30T03:34:09.433Z,-0.98
2023-01-30T03:39:14.237Z,-0.30
2023-01-30T03:44:19.277Z,0.00
2023-01-30T03:49:25.594Z,0.20
2023-01-30T03:54:30.206Z,-0.75
2023-01-30T03:59:34.939Z,-0.33
2023-01-30T04:04:45.887Z,-0.34
2023-01-30T04:09:51.232Z,0.14
2023-01-30T04:14:57.500Z,0.10
2023-01-30T04:20:23.673Z,-0.43
2023-01-30T04:25:31.174Z,-0.36
2023-01-30T04:30:36.053Z,-0.24
2023-01-30T04:36:03.616Z,-0.89
2023-01-30T04:41:08.856Z,-0.61
2023-01-30T04:46:17.533Z,-0.74
2023-01-30T04:51:23.646Z,-1.31
2023-01-30T04:56:28.624Z,-0.71
2023-01-30T05:01:34.666Z,-0.87
2023-01-30T05:06:40.605Z,-1.10
2023-01-30T05:11:45.406Z,-0.81
2023-01-30T05:16:50.485Z,-1.03
2023-01-30T05:21:56.422Z,-1.54
2023-01-30T05:27:00.768Z,-1.35
2023-01-30T05:32:05.968Z,-1.09
2023-01-30T05:37:12.737Z,-0.68
2023-01-30T05:42:17.253Z,-1.13
2023-01-30T05:47:22.115Z,-1.50
2023-01-30T05:52:28.151Z,-0.97
2023-01-30T05:57:32.593Z,-0.71
2023-01-30T06:02:37.104Z,-1.28
2023-01-30T06:07:43.252Z,-1.52
2023-01-30T06:12:47.817Z,-1.61
2023-01-30T06:17:52.640Z,-0.96
2023-01-30T06:22:58.681Z,-1.07
2023-01-30T06:28:03.240Z,-1.74
2023-01-30T06:33:07.734Z,-1.38
2023-01-30T06:38:14.342Z,-1.52
2023-01-30T06:43:19.619Z,-1.53
2023-01-30T06:48:25.255Z,-1.35
2023-01-30T06:53:31.484Z,-1.04
2023-01-30T06:58:36.030Z,-1.01
2023-01-30T07:03:40.487Z,-1.01
2023-01-30T07:08:46.539Z,-1.27
2023-01-30T07:13:51.186Z,-0.47
2023-01-30T07:18:57.454Z,-0.32
2023-01-30T07:24:03.369Z,-0.20
2023-01-30T07:29:07.893Z,-0.42
2023-01-30T07:34:12.399Z,-0.53
2023-01-30T07:39:19.900Z,-0.21
2023-01-30T07:44:25.827Z,0.25
2023-01-30T07:49:30.817Z,0.09
2023-01-30T07:54:36.674Z,0.04
2023-01-30T07:59:41.358Z,-0.39
2023-01-30T08:04:45.878Z,-0.19
2023-01-30T08:09:51.901Z,-0.18
2023-01-30T08:14:56.492Z,0.28
2023-01-30T08:20:01.073Z,0.09
2023-01-30T08:25:08.711Z,0.05
2023-01-30T08:30:14.567Z,0.25
2023-01-30T08:35:18.955Z,0.47
2023-01-30T08:40:25.074Z,0.30
2023-01-30T08:45:30.224Z,0.09
2023-01-30T08:50:35.723Z,-0.02
2023-01-30T08:55:41.800Z,0.23
2023-01-30T09:00:47.871Z,0.28
2023-01-30T09:05:56.892Z,0.06
2023-01-30T09:11:04.801Z,-0.33
2023-01-30T09:16:09.459Z,-0.16
2023-01-30T09:21:15.026Z,0.65
2023-01-30T09:26:20.991Z,0.34
2023-01-30T09:31:25.567Z,0.10
2023-01-30T09:36:30.181Z,0.28
2023-01-30T09:42:06.791Z,0.53
2023-01-30T09:47:13.356Z,0.87
2023-01-30T09:52:26.412Z,1.01
2023-01-30T09:57:33.417Z,0.77
2023-01-30T10:02:45.972Z,0.75
2023-01-30T10:08:09.723Z,1.12
2023-01-30T10:13:30.559Z,1.30
2023-01-30T10:19:10.742Z,0.53
2023-01-30T10:24:39.329Z,0.27
2023-01-30T10:29:49.257Z,0.95
2023-01-30T10:34:57.432Z,0.96
2023-01-30T10:40:14.092Z,0.83
2023-01-30T10:45:24.576Z,0.76
2023-01-30T10:50:38.502Z,0.09
2023-01-30T10:55:49.337Z,0.16
2023-01-30T11:01:01.585Z,0.57
2023-01-30T11:06:12.691Z,0.79
2023-01-30T11:11:29.322Z,0.58
2023-01-30T11:16:49.814Z,0.86
2023-01-30T11:21:56.362Z,0.60
2023-01-30T11:27:12.143Z,0.12
2023-01-30T11:32:29.113Z,0.78
2023-01-30T11:37:35.443Z,0.72
2023-01-30T11:42:46.016Z,0.51
2023-01-30T11:48:04.745Z,0.01
2023-01-30T11:53:22.126Z,0.22
2023-01-30T11:58:30.039Z,0.01
2023-01-30T12:03:45.888Z,0.31
2023-01-30T12:08:54.220Z,0.23
2023-01-30T12:14:10.524Z,-0.03
2023-01-30T12:19:30.894Z,0.32
2023-01-30T12:24:42.427Z,0.56
2023-01-30T12:30:00.017Z,0.34
2023-01-30T12:35:16.988Z,0.53
2023-01-30T12:40:51.789Z,0.22
2023-01-30T12:46:04.789Z,-0.06
2023-01-30T12:51:22.423Z,-0.07
2023-01-30T12:56:52.237Z,-0.25
2023-01-30T13:02:24.362Z,-0.32
2023-01-30T13:07:41.386Z,-0.20
2023-01-30T13:12:52.294Z,-0.17
2023-01-30T13:18:07.676Z,-0.21
2023-01-30T13:23:19.632Z,-0.60
2023-01-30T13:28:27.415Z,-0.80
2023-01-30T13:33:35.090Z,-0.66
2023-01-30T13:38:51.173Z,0.01
2023-01-30T13:43:56.212Z,0.12
2023-01-30T13:49:11.472Z,-0.59
2023-01-30T13:54:38.348Z,-0.49
2023-01-30T14:00:09.583Z,-0.72
2023-01-30T14:05:56.913Z,-0.44
2023-01-30T14:11:03.468Z,-0.43
2023-01-30T14:16:08.378Z,0.00
2023-01-30T14:21:18.197Z,-0.11
2023-01-30T14:32:29.009Z,-0.71
2023-01-30T14:38:18.524Z,-0.25
2023-01-30T14:43:53.043Z,-0.11
2023-01-30T14:49:05.792Z,-0.47
2023-01-30T14:54:27.658Z,-0.03
2023-01-30T14:59:41.428Z,0.06
2023-01-30T15:04:50.554Z,-0.50
2023-01-30T15:09:59.286Z,-0.97
2023-01-30T15:15:15.430Z,-0.73
2023-01-30T15:20:37.245Z,-1.32
2023-01-30T15:25:55.745Z,-1.37
2023-01-30T15:31:10.221Z,-1.26
2023-01-30T15:36:38.894Z,-1.17
2023-01-30T15:41:43.659Z,-1.32
2023-01-30T15:46:57.039Z,-1.32
2023-01-30T15:52:04.789Z,-1.51
2023-01-30T15:57:19.304Z,-1.41
2023-01-30T16:02:30.366Z,-2.13
2023-01-30T16:07:36.319Z,-1.58
2023-01-30T16:12:41.184Z,-1.51
2023-01-30T16:17:59.590Z,-1.62
2023-01-30T16:23:05.661Z,-1.47
2023-01-30T16:28:10.532Z,-1.07
2023-01-30T16:33:18.075Z,-1.03
2023-01-30T16:38:36.816Z,-1.36
2023-01-30T16:43:44.716Z,-1.01
2023-01-30T16:48:49.267Z,-1.05
2023-01-30T16:54:03.906Z,-0.85
2023-01-30T16:59:20.170Z,-0.16
2023-01-30T17:04:29.068Z,-0.52
2023-01-30T17:09:39.672Z,-0.49
2023-01-30T17:14:44.334Z,-0.33
2023-01-30T17:19:49.295Z,-0.25
2023-01-30T17:24:59.861Z,-0.77
2023-01-30T17:30:04.612Z,-0.51
2023-01-30T17:35:09.772Z,0.02
2023-01-30T17:40:19.738Z,-0.43
2023-01-30T17:45:24.480Z,-0.36
2023-01-30T17:50:29.737Z,-0.88
2023-01-30T17:55:36.667Z,-0.85
2023-01-30T18:00:41.164Z,-0.85
2023-01-30T18:05:45.767Z,-1.22
2023-01-30T18:10:51.841Z,-1.14
2023-01-30T18:16:03.448Z,-1.57
2023-01-30T18:21:08.232Z,-1.53
2023-01-30T18:26:14.350Z,-0.75
2023-01-30T18:31:20.308Z,-1.00
2023-01-30T18:36:25.283Z,-1.13
2023-01-30T18:41:32.275Z,-0.66
2023-01-30T18:46:36.969Z,-1.04
2023-01-30T18:51:41.543Z,-0.68
2023-01-30T18:56:47.611Z,-0.56
2023-01-30T19:01:52.334Z,-0.43
2023-01-30T19:06:57.093Z,-0.64
2023-01-30T19:12:20.367Z,-0.47
2023-01-30T19:17:24.914Z,-0.68
2023-01-30T19:22:29.551Z,0.38
2023-01-30T19:27:37.906Z,0.09
2023-01-30T19:32:42.408Z,0.89
2023-01-30T19:37:48.064Z,0.73
2023-01-30T19:42:56.836Z,1.22
2023-01-30T19:48:04.278Z,0.53
2023-01-30T19:53:10.501Z,0.32
2023-01-30T19:58:16.643Z,0.28
2023-01-30T20:03:21.280Z,1.13
2023-01-30T20:08:32.521Z,0.21
2023-01-30T20:13:40.115Z,0.31
2023-01-30T20:18:46.282Z,0.04
2023-01-30T20:23:51.556Z,-0.22
2023-01-30T20:28:58.741Z,0.61
2023-01-30T20:34:04.978Z,0.29
2023-01-30T20:39:09.705Z,0.26
2023-01-30T20:44:16.635Z,0.16
2023-01-30T20:49:23.736Z,0.22
2023-01-30T20:54:28.602Z,0.71
2023-01-30T20:59:34.974Z,1.28
2023-01-30T21:04:39.757Z,0.78
2023-01-30T21:09:44.282Z,0.67
2023-01-30T21:14:50.380Z,0.48
2023-01-30T21:19:54.965Z,0.49
2023-01-30T21:24:59.927Z,0.91
2023-01-30T21:30:07.003Z,0.22
2023-01-30T21:35:14.855Z,1.04
2023-01-30T21:40:36.774Z,0.97
2023-01-30T21:45:43.642Z,1.60
2023-01-30T21:50:49.179Z,0.94
2023-01-30T21:55:55.053Z,1.17
2023-01-30T22:01:07.472Z,1.37
2023-01-30T22:06:13.008Z,0.62
2023-01-30T22:11:19.703Z,1.30
2023-01-30T22:16:27.457Z,1.16
2023-01-30T22:21:34.469Z,1.39
2023-01-30T22:26:42.107Z,1.37
2023-01-30T22:31:48.355Z,1.78
2023-01-30T22:36:53.322Z,1.16
2023-01-30T22:41:58.075Z,1.30
2023-01-30T22:47:04.133Z,1.64
2023-01-30T22:52:08.966Z,1.26
2023-01-30T22:57:13.621Z,1.44
2023-01-30T23:02:19.851Z,1.08
2023-01-30T23:07:24.446Z,0.88
2023-01-30T23:12:42.693Z,0.53
2023-01-30T23:18:15.107Z,0.57
2023-01-30T23:23:19.717Z,0.89
2023-01-30T23:28:24.446Z,1.31
2023-01-30T23:33:30.601Z,1.49
2023-01-30T23:38:35.705Z,0.94
2023-01-30T23:43:41.091Z,1.20
2023-01-30T23:48:49.873Z,1.14
2023-01-30T23:53:55.575Z,1.12
2023-01-30T23:59:00.117Z,0.89
